createdAt,value
2019-06-27T00:00:09.736Z,10.00
2019-06-27T00:02:38.383Z,9.90
2019-06-27T00:05:07.685Z,9.93
2019-06-27T00:07:37.247Z,9.80
2019-06-27T00:10:09.337Z,9.80
2019-06-27T00:12:37.898Z,9.53
2019-06-27T00:15:07.026Z,9.50
2019-06-27T00:17:35.683Z,9.30
2019-06-27T00:20:05.507Z,9.83
2019-06-27T00:22:34.312Z,9.03
2019-06-27T00:25:03.548Z,9.50
2019-06-27T00:27:32.139Z,8.43
2019-06-27T00:30:00.748Z,8.90
2019-06-27T00:32:29.287Z,8.23
2019-06-27T00:34:57.876Z,10.30
2019-06-27T00:37:26.534Z,10.43
2019-06-27T00:39:55.121Z,10.03
2019-06-27T00:42:23.681Z,9.00
2019-06-27T00:44:52.393Z,10.53
2019-06-27T00:47:21.069Z,9.33
2019-06-27T00:49:49.664Z,8.90
2019-06-27T00:52:18.353Z,9.70
2019-06-27T00:54:47.012Z,9.10
2019-06-27T00:57:15.665Z,8.70
2019-06-27T00:59:44.255Z,9.70
2019-06-27T01:02:12.820Z,10.03
2019-06-27T01:04:41.407Z,8.80
2019-06-27T01:07:10.035Z,9.03
2019-06-27T01:09:38.681Z,9.10
2019-06-27T01:12:07.389Z,9.63
2019-06-27T01:14:35.976Z,10.33
2019-06-27T01:17:04.694Z,9.20
2019-06-27T01:19:33.426Z,10.00
2019-06-27T01:22:02.058Z,10.50
2019-06-27T01:24:30.745Z,9.73
2019-06-27T01:26:59.445Z,10.67
2019-06-27T01:29:28.034Z,10.77
2019-06-27T01:31:56.598Z,9.70
2019-06-27T01:34:25.155Z,10.47
2019-06-27T01:36:53.860Z,9.87
2019-06-27T01:39:22.442Z,10.60
2019-06-27T01:41:51.076Z,11.50
2019-06-27T01:44:39.355Z,10.47
2019-06-27T01:47:08.466Z,10.43
2019-06-27T01:49:37.040Z,10.60
2019-06-27T01:52:05.969Z,10.50
2019-06-27T01:54:34.710Z,10.27
2019-06-27T01:57:03.413Z,9.87
2019-06-27T01:59:32.032Z,10.53
2019-06-27T02:02:00.763Z,9.90
2019-06-27T02:04:29.485Z,10.60
2019-06-27T02:06:58.050Z,10.60
2019-06-27T02:09:26.670Z,10.30
2019-06-27T02:11:55.314Z,10.10
2019-06-27T02:14:23.958Z,10.17
2019-06-27T02:16:52.659Z,9.67
2019-06-27T02:19:21.248Z,9.80
2019-06-27T02:21:49.881Z,9.60
2019-06-27T02:24:18.529Z,9.40
2019-06-27T02:26:47.225Z,9.37
2019-06-27T02:29:15.813Z,9.63
2019-06-27T02:31:44.383Z,9.77
2019-06-27T02:34:13.029Z,9.43
2019-06-27T02:36:41.674Z,9.77
2019-06-27T02:39:10.194Z,10.30
2019-06-27T02:41:38.765Z,10.80
2019-06-27T02:44:07.417Z,10.27
2019-06-27T02:46:36.216Z,8.97
2019-06-27T02:49:04.861Z,9.87
2019-06-27T02:51:33.451Z,9.20
2019-06-27T02:54:02.117Z,10.37
2019-06-27T02:56:30.741Z,9.80
2019-06-27T02:58:59.362Z,9.20
2019-06-27T03:01:28.018Z,9.87
2019-06-27T03:03:56.650Z,10.43
2019-06-27T03:06:25.314Z,9.03
2019-06-27T03:08:54.009Z,10.00
2019-06-27T03:11:22.662Z,9.63
2019-06-27T03:13:51.357Z,10.03
2019-06-27T03:16:19.951Z,10.70
2019-06-27T03:18:48.882Z,9.37
2019-06-27T03:21:17.547Z,9.13
2019-06-27T03:23:46.106Z,10.13
2019-06-27T03:26:14.695Z,10.07
2019-06-27T03:28:51.801Z,9.90
2019-06-27T03:31:13.528Z,9.87
2019-06-27T03:33:42.130Z,9.80
2019-06-27T03:36:10.833Z,10.53
2019-06-27T03:38:39.863Z,10.40
2019-06-27T03:41:08.589Z,9.30
2019-06-27T03:43:37.214Z,9.60
2019-06-27T03:46:05.889Z,9.53
2019-06-27T03:48:34.469Z,10.27
2019-06-27T03:51:03.118Z,9.97
2019-06-27T03:53:31.771Z,11.00
2019-06-27T03:56:00.365Z,10.80
2019-06-27T03:58:29.058Z,12.07
2019-06-27T04:00:57.674Z,10.53
2019-06-27T04:03:26.446Z,11.03
2019-06-27T04:05:55.067Z,11.70
2019-06-27T04:08:23.708Z,10.37
2019-06-27T04:10:52.401Z,10.20
2019-06-27T04:13:21.075Z,11.20
2019-06-27T04:15:49.763Z,10.07
2019-06-27T04:18:18.491Z,10.17
2019-06-27T04:20:47.061Z,10.13
2019-06-27T04:23:15.656Z,9.43
2019-06-27T04:25:44.211Z,10.57
2019-06-27T04:28:12.794Z,10.30
2019-06-27T04:30:41.526Z,9.90
2019-06-27T04:33:10.116Z,10.00
2019-06-27T04:35:38.676Z,10.45
2019-06-27T04:38:07.398Z,9.37
2019-06-27T04:40:36.014Z,9.50
2019-06-27T04:43:06.058Z,10.17
2019-06-27T04:45:34.946Z,9.70
2019-06-27T04:48:03.532Z,10.20
2019-06-27T04:50:32.229Z,9.80
2019-06-27T04:53:00.885Z,9.63
2019-06-27T04:55:29.505Z,8.90
2019-06-27T04:57:58.051Z,9.73
2019-06-27T05:00:30.797Z,10.87
2019-06-27T05:02:59.397Z,10.17
2019-06-27T05:05:28.005Z,9.17
2019-06-27T05:07:56.660Z,9.73
2019-06-27T05:10:25.322Z,9.60
2019-06-27T05:12:54.050Z,9.87
2019-06-27T05:15:22.618Z,9.30
2019-06-27T05:17:51.287Z,9.83
2019-06-27T05:20:19.957Z,9.07
2019-06-27T05:22:48.609Z,9.60
2019-06-27T05:25:17.309Z,9.00
2019-06-27T05:27:45.913Z,11.47
2019-06-27T05:30:14.644Z,9.10
2019-06-27T05:32:43.217Z,9.83
2019-06-27T05:35:11.929Z,10.20
2019-06-27T05:37:40.519Z,9.47
2019-06-27T05:40:09.741Z,10.90
2019-06-27T05:42:38.367Z,10.40
2019-06-27T05:45:07.096Z,10.97
2019-06-27T05:47:35.724Z,11.77
2019-06-27T05:50:07.523Z,11.63
2019-06-27T05:52:36.184Z,10.73
2019-06-27T05:55:06.012Z,12.83
2019-06-27T05:57:35.329Z,12.83
2019-06-27T06:00:06.462Z,12.47
2019-06-27T06:02:35.050Z,10.73
2019-06-27T06:05:04.481Z,10.83
2019-06-27T06:07:33.219Z,10.70
2019-06-27T06:10:01.765Z,11.80
2019-06-27T06:12:30.500Z,11.60
2019-06-27T06:14:59.052Z,10.10
2019-06-27T06:17:27.653Z,10.93
2019-06-27T06:19:56.205Z,11.57
2019-06-27T06:22:24.808Z,15.70
2019-06-27T06:24:53.357Z,13.30
2019-06-27T06:27:22.091Z,12.90
2019-06-27T06:29:50.797Z,12.40
2019-06-27T06:32:19.450Z,14.23
2019-06-27T06:34:48.029Z,11.87
2019-06-27T06:37:16.634Z,12.77
2019-06-27T06:39:45.289Z,12.97
2019-06-27T06:42:14.044Z,13.20
2019-06-27T06:44:42.683Z,12.87
2019-06-27T06:47:11.290Z,12.40
2019-06-27T06:49:39.840Z,12.93
2019-06-27T06:52:08.584Z,19.23
2019-06-27T06:54:37.221Z,12.30
2019-06-27T06:57:05.881Z,13.47
2019-06-27T06:59:34.504Z,12.20
2019-06-27T07:02:03.082Z,12.63
2019-06-27T07:04:31.662Z,14.23
2019-06-27T07:07:00.256Z,13.50
2019-06-27T07:09:28.841Z,13.63
2019-06-27T07:11:57.409Z,15.10
2019-06-27T07:14:27.158Z,14.53
2019-06-27T07:16:56.121Z,14.60
2019-06-27T07:19:24.836Z,14.50
2019-06-27T07:21:53.479Z,14.93
2019-06-27T07:24:22.086Z,14.10
2019-06-27T07:26:50.902Z,14.60
2019-06-27T07:29:19.660Z,15.03
2019-06-27T07:31:48.326Z,15.67
2019-06-27T07:34:16.950Z,14.40
2019-06-27T07:36:45.544Z,15.83
2019-06-27T07:39:14.094Z,14.90
2019-06-27T07:41:42.749Z,14.13
2019-06-27T07:44:11.327Z,14.90
2019-06-27T07:46:39.905Z,15.13
2019-06-27T07:49:08.629Z,14.07
2019-06-27T07:51:37.189Z,14.70
2019-06-27T07:54:05.779Z,14.50
2019-06-27T07:56:34.328Z,14.10
2019-06-27T07:59:02.985Z,15.13
2019-06-27T08:01:35.510Z,14.80
2019-06-27T08:04:01.848Z,14.30
2019-06-27T08:06:30.615Z,16.07
2019-06-27T08:08:59.465Z,14.13
2019-06-27T08:11:28.127Z,16.13
2019-06-27T08:13:56.804Z,16.03
2019-06-27T08:16:25.424Z,14.93
2019-06-27T08:18:54.020Z,15.23
2019-06-27T08:21:22.578Z,16.57
2019-06-27T08:23:51.238Z,16.23
2019-06-27T08:26:19.798Z,15.47
2019-06-27T08:28:48.453Z,17.03
2019-06-27T08:31:17.017Z,15.60
2019-06-27T08:33:45.749Z,15.30
2019-06-27T08:36:14.297Z,16.33
2019-06-27T08:38:42.882Z,15.57
2019-06-27T08:41:13.923Z,15.57
2019-06-27T08:43:41.742Z,14.40
2019-06-27T08:46:10.390Z,15.80
2019-06-27T08:48:39.100Z,15.73
2019-06-27T08:51:07.706Z,15.10
2019-06-27T08:53:36.288Z,16.20
2019-06-27T08:56:04.921Z,15.93
2019-06-27T08:58:33.478Z,15.80
2019-06-27T09:01:02.151Z,15.00
2019-06-27T09:03:30.705Z,16.03
2019-06-27T09:05:59.351Z,15.37
2019-06-27T09:08:27.942Z,15.30
2019-06-27T09:10:56.646Z,15.67
2019-06-27T09:13:25.259Z,16.17
2019-06-27T09:15:53.933Z,14.77
2019-06-27T09:18:22.484Z,14.63
2019-06-27T09:20:51.082Z,16.00
2019-06-27T09:23:19.709Z,15.93
2019-06-27T09:25:48.309Z,15.53
2019-06-27T09:28:16.934Z,16.10
2019-06-27T09:30:45.574Z,16.40
2019-06-27T09:33:14.227Z,14.80
2019-06-27T09:35:42.961Z,13.80
2019-06-27T09:38:11.707Z,16.17
2019-06-27T09:40:40.347Z,15.17
2019-06-27T09:43:09.076Z,15.20
2019-06-27T09:45:37.812Z,13.90
2019-06-27T09:48:06.442Z,13.70
2019-06-27T09:50:35.052Z,15.07
2019-06-27T09:53:03.580Z,13.80
2019-06-27T09:55:32.255Z,14.10
2019-06-27T09:58:00.813Z,13.33
2019-06-27T10:00:29.621Z,13.83
2019-06-27T10:02:58.229Z,13.37
2019-06-27T10:05:26.921Z,15.10
2019-06-27T10:07:55.514Z,14.10
2019-06-27T10:10:24.241Z,13.30
2019-06-27T10:12:52.821Z,14.07
2019-06-27T10:15:21.925Z,14.10
2019-06-27T10:17:50.514Z,14.67
2019-06-27T10:20:19.509Z,13.70
2019-06-27T10:22:48.098Z,12.90
2019-06-27T10:25:16.900Z,13.77
2019-06-27T10:27:45.491Z,12.60
2019-06-27T10:30:14.864Z,13.80
2019-06-27T10:32:57.853Z,13.30
2019-06-27T10:35:13.990Z,13.77
2019-06-27T10:37:42.716Z,14.30
2019-06-27T10:40:11.572Z,13.50
2019-06-27T10:42:40.096Z,13.67
2019-06-27T10:45:09.190Z,13.60
2019-06-27T10:47:38.227Z,13.13
2019-06-27T10:50:07.652Z,14.37
2019-06-27T10:52:36.334Z,14.50
2019-06-27T10:55:05.825Z,13.60
2019-06-27T10:57:34.489Z,14.33
2019-06-27T11:00:03.121Z,13.50
2019-06-27T11:02:31.789Z,13.60
2019-06-27T11:05:00.355Z,14.80
2019-06-27T11:07:28.946Z,13.40
2019-06-27T11:09:57.530Z,14.70
2019-06-27T11:12:26.180Z,13.77
2019-06-27T11:14:59.326Z,14.40
2019-06-27T11:17:25.018Z,14.30
2019-06-27T11:19:53.605Z,14.33
2019-06-27T11:22:22.172Z,14.33
2019-06-27T11:24:50.801Z,15.03
2019-06-27T11:27:19.425Z,14.43
2019-06-27T11:29:47.957Z,13.67
2019-06-27T11:32:16.619Z,13.45
2019-06-27T11:34:45.167Z,13.73
2019-06-27T11:37:13.762Z,13.90
2019-06-27T11:39:42.334Z,12.80
2019-06-27T11:42:10.981Z,13.80
2019-06-27T11:44:39.688Z,13.93
2019-06-27T11:47:08.373Z,13.43
2019-06-27T11:49:37.027Z,13.87
2019-06-27T11:52:05.667Z,14.00
2019-06-27T11:54:34.392Z,14.27
2019-06-27T11:57:03.060Z,14.20
2019-06-27T11:59:31.659Z,14.67
2019-06-27T12:02:00.287Z,14.27
2019-06-27T12:04:28.948Z,14.70
2019-06-27T12:06:57.611Z,14.73
2019-06-27T12:09:26.273Z,13.93
2019-06-27T12:11:54.901Z,14.60
2019-06-27T12:14:23.481Z,14.73
2019-06-27T12:16:52.153Z,14.03
2019-06-27T12:19:20.741Z,14.30
2019-06-27T12:21:49.437Z,13.57
2019-06-27T12:24:18.034Z,13.13
2019-06-27T12:26:46.704Z,15.33
2019-06-27T12:29:15.280Z,13.70
2019-06-27T12:31:43.845Z,13.97
2019-06-27T12:34:12.442Z,14.63
2019-06-27T12:36:41.002Z,14.60
2019-06-27T12:39:09.658Z,14.60
2019-06-27T12:41:38.225Z,12.83
2019-06-27T12:44:06.956Z,14.07
2019-06-27T12:46:35.661Z,13.70
2019-06-27T12:49:04.390Z,13.73
2019-06-27T12:51:33.015Z,13.33
2019-06-27T12:54:01.708Z,13.23
2019-06-27T12:56:30.496Z,13.77
2019-06-27T12:58:59.157Z,13.43
2019-06-27T13:01:27.829Z,14.60
2019-06-27T13:03:56.453Z,13.53
2019-06-27T13:06:25.112Z,13.17
2019-06-27T13:08:53.661Z,13.03
2019-06-27T13:11:22.322Z,13.00
2019-06-27T13:13:50.885Z,13.27
2019-06-27T13:16:19.481Z,12.97
2019-06-27T13:18:48.042Z,12.00
2019-06-27T13:21:16.708Z,12.67
2019-06-27T13:23:48.835Z,11.90
2019-06-27T13:26:15.572Z,12.20
2019-06-27T13:28:44.141Z,12.30
2019-06-27T13:31:12.807Z,12.63
2019-06-27T13:33:41.364Z,11.90
2019-06-27T13:36:10.034Z,10.95
2019-06-27T13:38:38.757Z,11.75
2019-06-27T13:41:07.408Z,12.70
2019-06-27T13:43:36.097Z,10.95
2019-06-27T13:46:04.808Z,11.48
2019-06-27T13:48:33.387Z,12.93
2019-06-27T13:51:01.961Z,11.35
2019-06-27T13:53:30.680Z,11.35
2019-06-27T13:55:59.269Z,12.13
2019-06-27T13:58:27.932Z,11.85
2019-06-27T14:00:56.573Z,10.70
2019-06-27T14:03:25.193Z,11.15
2019-06-27T14:05:53.785Z,11.03
2019-06-27T14:08:26.017Z,11.97
2019-06-27T14:10:52.589Z,11.33
2019-06-27T14:13:21.253Z,10.38
2019-06-27T14:15:49.886Z,10.80
2019-06-27T14:18:19.457Z,10.03
2019-06-27T14:20:48.238Z,10.88
2019-06-27T14:23:16.844Z,10.45
2019-06-27T14:25:45.499Z,10.18
2019-06-27T14:28:14.065Z,10.08
2019-06-27T14:30:42.760Z,9.40
2019-06-27T14:33:11.353Z,10.65
2019-06-27T14:35:39.996Z,10.45
2019-06-27T14:38:08.658Z,9.15
2019-06-27T14:40:37.434Z,10.25
2019-06-27T14:43:06.057Z,9.75
2019-06-27T14:45:34.690Z,10.63
2019-06-27T14:48:03.277Z,9.93
2019-06-27T14:50:31.938Z,10.27
2019-06-27T14:53:00.525Z,9.23
2019-06-27T14:55:29.088Z,10.23
2019-06-27T14:57:57.714Z,9.88
2019-06-27T15:00:26.601Z,8.60
2019-06-27T15:02:55.346Z,9.63
2019-06-27T15:05:32.660Z,9.40
2019-06-27T15:07:54.372Z,9.80
2019-06-27T15:10:23.074Z,9.25
2019-06-27T15:12:57.114Z,9.50
2019-06-27T15:15:22.179Z,9.37
2019-06-27T15:17:50.844Z,9.20
2019-06-27T15:20:19.562Z,9.63
2019-06-27T15:22:48.073Z,9.73
2019-06-27T15:25:16.999Z,9.25
2019-06-27T15:27:45.545Z,8.40
2019-06-27T15:30:15.309Z,10.15
2019-06-27T15:32:43.868Z,8.95
2019-06-27T15:35:12.965Z,9.63
2019-06-27T15:37:41.549Z,9.25
2019-06-27T15:40:10.940Z,9.55
2019-06-27T15:42:39.603Z,9.23
2019-06-27T15:45:09.090Z,9.05
2019-06-27T15:47:37.741Z,9.33
2019-06-27T15:50:07.146Z,9.60
2019-06-27T15:52:35.805Z,9.30
2019-06-27T15:55:06.406Z,10.00
2019-06-27T15:57:35.024Z,9.30
2019-06-27T16:00:05.649Z,8.90
2019-06-27T16:02:34.255Z,9.48
2019-06-27T16:05:02.893Z,8.80
2019-06-27T16:07:31.512Z,8.60
2019-06-27T16:10:00.241Z,9.48
2019-06-27T16:12:28.837Z,9.30
2019-06-27T16:14:57.504Z,9.38
2019-06-27T16:17:26.136Z,9.28
2019-06-27T16:19:54.815Z,9.15
2019-06-27T16:22:23.393Z,8.50
2019-06-27T16:24:52.049Z,8.55
2019-06-27T16:27:20.749Z,8.50
2019-06-27T16:29:49.338Z,8.98
2019-06-27T16:32:17.901Z,9.10
2019-06-27T16:34:46.516Z,8.33
2019-06-27T16:37:15.133Z,8.40
2019-06-27T16:39:43.743Z,7.97
2019-06-27T16:42:12.436Z,7.58
2019-06-27T16:44:41.286Z,8.13
2019-06-27T16:47:09.992Z,8.20
2019-06-27T16:49:38.642Z,7.17
2019-06-27T16:52:07.350Z,7.67
2019-06-27T16:54:36.070Z,7.97
2019-06-27T16:57:04.834Z,8.70
2019-06-27T16:59:33.433Z,8.00
2019-06-27T17:02:01.978Z,8.73
2019-06-27T17:04:30.644Z,8.33
2019-06-27T17:06:59.285Z,8.85
2019-06-27T17:09:27.918Z,8.88
2019-06-27T17:11:56.417Z,8.23
2019-06-27T17:14:25.148Z,8.95
2019-06-27T17:16:53.792Z,8.93
2019-06-27T17:19:22.478Z,8.58
2019-06-27T17:21:51.077Z,9.45
2019-06-27T17:24:19.673Z,8.83
2019-06-27T17:26:48.309Z,8.90
2019-06-27T17:29:16.902Z,8.00
2019-06-27T17:31:45.537Z,9.43
2019-06-27T17:34:14.455Z,8.73
2019-06-27T17:36:56.531Z,8.80
2019-06-27T17:39:13.320Z,8.90
2019-06-27T17:41:41.945Z,7.93
2019-06-27T17:44:10.529Z,9.07
2019-06-27T17:46:39.093Z,8.50
2019-06-27T17:49:07.685Z,7.90
2019-06-27T17:51:36.313Z,8.07
2019-06-27T17:54:04.966Z,8.40
2019-06-27T17:56:33.524Z,9.03
2019-06-27T17:59:02.181Z,8.37
2019-06-27T18:01:31.878Z,8.20
2019-06-27T18:04:00.554Z,8.33
2019-06-27T18:06:29.149Z,8.20
2019-06-27T18:08:57.755Z,7.83
2019-06-27T18:11:26.350Z,8.00
2019-06-27T18:13:54.987Z,7.80
2019-06-27T18:16:23.585Z,7.97
2019-06-27T18:18:52.172Z,8.57
2019-06-27T18:21:20.732Z,7.83
2019-06-27T18:23:49.454Z,7.93
2019-06-27T18:26:18.271Z,7.75
2019-06-27T18:28:46.862Z,7.83
2019-06-27T18:31:15.430Z,7.67
2019-06-27T18:33:44.042Z,7.40
2019-06-27T18:36:12.674Z,7.73
2019-06-27T18:38:41.324Z,7.93
2019-06-27T18:41:12.707Z,8.00
2019-06-27T18:43:40.115Z,7.93
2019-06-27T18:46:08.749Z,7.40
2019-06-27T18:48:37.306Z,8.60
2019-06-27T18:51:06.933Z,11.67
2019-06-27T18:53:35.557Z,7.50
2019-06-27T18:56:04.223Z,7.80
2019-06-27T18:58:32.846Z,8.40
2019-06-27T19:01:01.529Z,7.73
2019-06-27T19:03:30.065Z,8.10
2019-06-27T19:05:58.719Z,9.10
2019-06-27T19:08:27.280Z,8.33
2019-06-27T19:10:55.995Z,9.07
2019-06-27T19:13:24.622Z,7.90
2019-06-27T19:15:53.360Z,8.37
2019-06-27T19:18:40.015Z,8.53
2019-06-27T19:21:12.928Z,8.93
2019-06-27T19:23:54.933Z,9.20
2019-06-27T19:26:23.525Z,11.10
2019-06-27T19:28:52.230Z,10.77
2019-06-27T19:31:20.825Z,10.87
2019-06-27T19:33:49.400Z,11.77
2019-06-27T19:36:18.113Z,11.37
2019-06-27T19:38:46.700Z,11.93
2019-06-27T19:41:15.365Z,11.60
2019-06-27T19:43:44.029Z,11.23
2019-06-27T19:46:12.724Z,11.33
2019-06-27T19:48:41.354Z,11.80
2019-06-27T19:51:09.948Z,10.90
2019-06-27T19:53:38.507Z,11.13
2019-06-27T19:56:07.104Z,10.37
2019-06-27T19:58:35.718Z,11.33
2019-06-27T20:01:04.453Z,11.60
2019-06-27T20:03:33.085Z,11.40
2019-06-27T20:06:01.762Z,11.43
2019-06-27T20:08:30.327Z,11.40
2019-06-27T20:10:59.457Z,11.40
2019-06-27T20:13:28.149Z,11.70
2019-06-27T20:15:56.740Z,11.77
2019-06-27T20:18:25.293Z,11.53
2019-06-27T20:20:53.985Z,12.23
2019-06-27T20:23:22.538Z,11.80
2019-06-27T20:25:51.111Z,11.80
2019-06-27T20:28:19.770Z,11.33
2019-06-27T20:30:48.501Z,11.67
2019-06-27T20:33:17.094Z,11.70
2019-06-27T20:35:45.690Z,11.37
2019-06-27T20:38:14.249Z,12.53
2019-06-27T20:40:42.907Z,12.10
2019-06-27T20:43:11.564Z,11.30
2019-06-27T20:45:40.200Z,11.83
2019-06-27T20:48:08.785Z,11.50
2019-06-27T20:50:37.514Z,11.50
2019-06-27T20:53:06.168Z,10.67
2019-06-27T20:55:34.878Z,11.30
2019-06-27T20:58:03.471Z,11.80
2019-06-27T21:00:32.101Z,10.70
2019-06-27T21:03:00.753Z,10.17
2019-06-27T21:05:29.381Z,10.90
2019-06-27T21:07:57.973Z,10.20
2019-06-27T21:10:26.681Z,11.73
2019-06-27T21:12:55.256Z,10.90
2019-06-27T21:15:24.090Z,11.50
2019-06-27T21:17:52.749Z,11.13
2019-06-27T21:20:21.434Z,11.30
2019-06-27T21:22:50.074Z,12.07
2019-06-27T21:25:18.729Z,11.43
2019-06-27T21:27:47.367Z,11.40
2019-06-27T21:30:17.735Z,12.50
2019-06-27T21:32:48.433Z,11.80
2019-06-27T21:35:16.744Z,11.20
2019-06-27T21:37:45.466Z,12.53
2019-06-27T21:40:14.390Z,11.80
2019-06-27T21:42:43.113Z,10.70
2019-06-27T21:45:12.541Z,12.07
2019-06-27T21:47:41.105Z,12.93
2019-06-27T21:50:10.836Z,11.20
2019-06-27T21:52:39.433Z,12.60
2019-06-27T21:55:08.718Z,13.50
2019-06-27T21:57:37.386Z,11.77
2019-06-27T22:00:09.480Z,12.20
2019-06-27T22:02:38.221Z,11.97
2019-06-27T22:05:08.716Z,11.90
2019-06-27T22:07:37.403Z,12.20
2019-06-27T22:10:07.898Z,11.57
2019-06-27T22:12:36.562Z,12.10
2019-06-27T22:15:06.906Z,11.10
2019-06-27T22:17:35.618Z,12.03
2019-06-27T22:20:14.943Z,11.03
2019-06-27T22:22:36.031Z,11.77
2019-06-27T22:25:07.745Z,11.50
2019-06-27T22:27:36.453Z,11.97
2019-06-27T22:30:09.789Z,12.23
2019-06-27T22:32:38.448Z,11.30
2019-06-27T22:35:07.634Z,13.60
2019-06-27T22:37:35.509Z,12.17
2019-06-27T22:40:23.895Z,11.87
2019-06-27T22:43:10.552Z,10.90
2019-06-27T22:45:57.086Z,12.80
2019-06-27T22:48:25.139Z,13.50
2019-06-27T22:51:10.430Z,11.97
2019-06-27T22:53:43.742Z,12.53
2019-06-27T22:56:12.446Z,11.83
2019-06-27T22:58:41.006Z,11.80
2019-06-27T23:01:09.729Z,12.37
2019-06-27T23:03:38.428Z,12.40
2019-06-27T23:06:07.093Z,12.43
2019-06-27T23:08:35.809Z,11.60
2019-06-27T23:11:04.449Z,12.03
2019-06-27T23:13:33.189Z,12.40
2019-06-27T23:16:01.909Z,12.40
2019-06-27T23:18:30.503Z,12.80
2019-06-27T23:20:59.065Z,11.90
2019-06-27T23:23:27.717Z,12.77
2019-06-27T23:25:56.317Z,12.30
2019-06-27T23:28:24.862Z,12.70
2019-06-27T23:30:53.473Z,12.97
2019-06-27T23:33:22.099Z,13.00
2019-06-27T23:35:50.682Z,12.20
2019-06-27T23:38:19.238Z,11.60
2019-06-27T23:40:47.861Z,12.10
2019-06-27T23:43:16.449Z,12.37
2019-06-27T23:45:45.009Z,11.03
2019-06-27T23:48:13.598Z,13.00
2019-06-27T23:50:42.324Z,12.37
2019-06-27T23:53:11.329Z,11.53
2019-06-27T23:55:39.884Z,12.47
2019-06-27T23:58:08.453Z,10.87
